Time;durP1;ratioP1;P1;durP2;ratioP2;P2;SDS_P1;SDS_P2;PMS_P1;PMS_P2;Temp;Humidity;BMP_temperature;BMP_pressure;BME280_temperature;BME280_humidity;BME280_pressure;Samples;Min_cycle;Max_cycle;Signal;HPM_P1;HPM_P2
2022/06/06 00:02:11;;;;;;;0.50;0.50;;;22.80;86.10;;;;;;4431157;32;20081;-70
2022/06/06 00:04:38;;;;;;;0.32;0.32;;;22.80;86.00;;;;;;4435813;32;20099;-70
2022/06/06 00:07:04;;;;;;;0.40;0.40;;;22.80;86.50;;;;;;4441365;32;21309;-70
2022/06/06 00:09:30;;;;;;;0.40;0.40;;;22.80;86.10;;;;;;4441824;32;20421;-70
2022/06/06 00:11:57;;;;;;;0.47;0.47;;;22.80;86.40;;;;;;4443001;32;20112;-70
2022/06/06 00:14:23;;;;;;;3.65;1.17;;;22.70;86.40;;;;;;4445301;32;20115;-70
2022/06/06 00:16:48;;;;;;;0.47;0.47;;;22.70;86.40;;;;;;4444633;32;20529;-70
2022/06/06 00:19:14;;;;;;;0.30;0.30;;;22.70;86.40;;;;;;4439003;32;20453;-70
2022/06/06 00:21:41;;;;;;;0.30;0.30;;;22.80;86.40;;;;;;4442244;32;20069;-70
2022/06/06 00:24:07;;;;;;;0.35;0.35;;;22.70;86.60;;;;;;4443585;32;20060;-70
2022/06/06 00:26:34;;;;;;;0.88;0.60;;;22.80;86.60;;;;;;4446111;32;20177;-70
2022/06/06 00:29:01;;;;;;;1.40;0.60;;;22.80;86.60;;;;;;4414731;32;20088;-70
2022/06/06 00:35:16;;;;;;;0.50;0.50;;;22.60;87.30;;;;;;4427858;32;20195;-70
2022/06/06 00:36:59;;;;;;;0.37;0.37;;;22.60;87.10;;;;;;4434417;32;20077;-70
2022/06/06 00:39:26;;;;;;;0.40;0.40;;;22.70;87.00;;;;;;4443453;32;20061;-70
2022/06/06 00:41:54;;;;;;;0.50;0.50;;;22.70;87.10;;;;;;4440436;32;20180;-70
2022/06/06 00:44:37;;;;;;;0.40;0.40;;;22.70;88.10;;;;;;4439005;32;20097;-70
2022/06/06 00:47:15;;;;;;;1.27;0.60;;;22.50;89.70;;;;;;4429604;32;20165;-70
2022/06/06 00:49:45;;;;;;;0.77;0.60;;;22.40;90.60;;;;;;4439754;32;20107;-70
2022/06/06 00:52:16;;;;;;;2.60;1.50;;;22.20;91.80;;;;;;4441454;32;20061;-70
2022/06/06 00:54:42;;;;;;;0.57;0.57;;;22.10;92.20;;;;;;4438980;32;20077;-70
2022/06/06 00:57:13;;;;;;;0.82;0.73;;;22.00;93.10;;;;;;4439516;32;20152;-70
2022/06/06 00:59:42;;;;;;;0.30;0.30;;;21.90;94.10;;;;;;4424631;32;20540;-70
2022/06/06 01:02:11;;;;;;;0.30;0.30;;;21.80;94.30;;;;;;4425492;32;20522;-70
2022/06/06 01:04:38;;;;;;;0.70;0.70;;;21.60;94.40;;;;;;4431047;32;20092;-70
2022/06/06 01:07:05;;;;;;;0.77;0.75;;;21.50;95.00;;;;;;4429056;32;20118;-69
2022/06/06 01:09:31;;;;;;;0.32;0.32;;;21.40;96.60;;;;;;4429014;32;20074;-70
2022/06/06 01:11:59;;;;;;;0.65;0.65;;;21.30;96.40;;;;;;4430034;32;20073;-70
2022/06/06 01:14:30;;;;;;;3.17;0.85;;;21.30;96.10;;;;;;4430555;32;20085;-70
2022/06/06 01:17:11;;;;;;;0.88;0.73;;;21.40;97.30;;;;;;4431128;32;20678;-70
2022/06/06 01:20:16;;;;;;;1.65;0.77;;;21.40;96.80;;;;;;4429802;32;20585;-70
2022/06/06 01:23:14;;;;;;;0.47;0.47;;;21.30;97.60;;;;;;4426199;32;20069;-70
2022/06/06 01:26:19;;;;;;;0.45;0.45;;;21.10;97.80;;;;;;4431092;32;20155;-70
2022/06/06 01:29:13;;;;;;;4.15;1.20;;;21.10;97.50;;;;;;4415321;32;20295;-70
2022/06/06 01:31:48;;;;;;;0.30;0.30;;;21.10;97.60;;;;;;4419264;32;81822;-70
2022/06/06 01:34:22;;;;;;;0.30;0.30;;;21.10;98.70;;;;;;4437949;32;21021;-70
2022/06/06 01:36:50;;;;;;;1.05;0.73;;;21.10;99.20;;;;;;4445139;32;20065;-70
2022/06/06 01:39:16;;;;;;;0.37;0.37;;;21.10;98.90;;;;;;4439403;32;20068;-70
2022/06/06 01:41:58;;;;;;;0.43;0.37;;;21.10;99.60;;;;;;4438974;32;20131;-70
2022/06/06 01:45:00;;;;;;;0.45;0.45;;;21.20;99.60;;;;;;4434378;32;20476;-70
2022/06/06 01:47:30;;;;;;;0.65;0.57;;;21.30;99.70;;;;;;4433371;32;20128;-70
2022/06/06 01:49:58;;;;;;;0.40;0.40;;;21.30;99.90;;;;;;4426192;32;20057;-70
2022/06/06 01:52:24;;;;;;;0.28;0.28;;;21.30;99.90;;;;;;4430835;32;20092;-70
2022/06/06 01:54:54;;;;;;;0.60;0.60;;;21.20;99.90;;;;;;4427763;32;20129;-70
2022/06/06 01:57:21;;;;;;;0.47;0.47;;;21.10;99.90;;;;;;4423826;32;20802;-70
2022/06/06 01:59:46;;;;;;;0.43;0.43;;;21.00;99.90;;;;;;4410089;32;20089;-70
2022/06/06 02:02:11;;;;;;;0.30;0.30;;;20.90;99.90;;;;;;4420109;32;20106;-70
2022/06/06 02:04:37;;;;;;;0.62;0.60;;;21.00;99.90;;;;;;4442001;32;20069;-70
2022/06/06 02:07:03;;;;;;;0.62;0.62;;;21.00;99.90;;;;;;4441081;32;20168;-70
2022/06/06 02:09:32;;;;;;;0.62;0.50;;;20.80;99.90;;;;;;4442724;32;20076;-70
2022/06/06 02:11:59;;;;;;;0.55;0.55;;;20.90;99.90;;;;;;4438810;32;20081;-70
2022/06/06 02:14:25;;;;;;;0.45;0.45;;;20.90;99.90;;;;;;4431828;32;20475;-70
2022/06/06 02:16:50;;;;;;;0.50;0.50;;;20.90;99.90;;;;;;4429154;32;20116;-70
2022/06/06 02:19:16;;;;;;;0.75;0.40;;;20.90;99.90;;;;;;4429286;32;20135;-70
2022/06/06 02:21:42;;;;;;;0.50;0.50;;;20.90;99.90;;;;;;4429737;32;20379;-70
2022/06/06 02:24:07;;;;;;;0.60;0.55;;;20.90;99.90;;;;;;4431561;32;20108;-70
2022/06/06 02:26:33;;;;;;;0.50;0.50;;;20.90;99.90;;;;;;4429833;32;20073;-70
2022/06/06 02:28:59;;;;;;;0.40;0.40;;;20.90;99.90;;;;;;4410426;32;20569;-70
2022/06/06 02:31:24;;;;;;;0.98;0.80;;;20.80;99.90;;;;;;4414537;32;20448;-70
2022/06/06 02:33:51;;;;;;;2.08;1.12;;;20.80;99.90;;;;;;4436213;32;20131;-70
2022/06/06 02:36:16;;;;;;;2.55;1.27;;;20.70;99.90;;;;;;4441442;32;20080;-70
2022/06/06 02:38:42;;;;;;;0.57;0.57;;;20.50;99.90;;;;;;4434167;32;20061;-70
2022/06/06 02:41:08;;;;;;;0.82;0.70;;;20.40;99.90;;;;;;4430143;32;20130;-70
2022/06/06 02:43:36;;;;;;;0.45;0.45;;;20.30;99.90;;;;;;4437614;32;20569;-70
2022/06/06 02:46:03;;;;;;;0.82;0.75;;;20.20;99.90;;;;;;4428734;32;20085;-70
2022/06/06 02:48:30;;;;;;;0.80;0.80;;;20.10;99.90;;;;;;4427378;32;20410;-70
2022/06/06 02:50:57;;;;;;;0.35;0.35;;;20.20;99.90;;;;;;4426700;32;20143;-70
2022/06/06 02:53:23;;;;;;;0.82;0.70;;;19.90;99.90;;;;;;4429358;32;20142;-70
2022/06/06 02:55:53;;;;;;;1.33;0.88;;;19.80;99.90;;;;;;4429071;32;20479;-70
2022/06/06 02:58:21;;;;;;;0.57;0.57;;;19.90;99.90;;;;;;4429335;32;20061;-70
2022/06/06 03:00:47;;;;;;;1.35;0.70;;;19.90;99.90;;;;;;4437677;32;20111;-70
2022/06/06 03:03:13;;;;;;;0.70;0.57;;;19.80;99.90;;;;;;4431849;32;20062;-70
2022/06/06 03:06:16;;;;;;;0.40;0.40;;;19.70;99.90;;;;;;4436067;32;20096;-70
2022/06/06 03:09:03;;;;;;;0.73;0.73;;;19.70;99.90;;;;;;4431488;32;20500;-70
2022/06/06 03:11:58;;;;;;;1.50;0.70;;;19.70;99.90;;;;;;4427992;32;20065;-70
2022/06/06 03:14:45;;;;;;;1.05;0.95;;;19.50;99.90;;;;;;4428192;32;20132;-70
2022/06/06 03:20:50;;;;;;;0.77;0.63;;;19.50;99.90;;;;;;4425498;32;20116;-69
2022/06/06 03:23:33;;;;;;;0.62;0.55;;;19.10;99.90;;;;;;4430792;32;20081;-69
2022/06/06 03:26:08;;;;;;;0.70;0.70;;;18.90;99.90;;;;;;4428251;32;20084;-69
2022/06/06 03:28:51;;;;;;;0.80;0.80;;;19.00;99.90;;;;;;4437759;32;20056;-69
2022/06/06 03:31:57;;;;;;;1.60;0.80;;;18.90;99.90;;;;;;4438006;32;20549;-69
2022/06/06 03:34:33;;;;;;;1.95;0.70;;;18.80;99.90;;;;;;4437450;32;20568;-69
2022/06/06 03:37:36;;;;;;;1.02;0.70;;;18.90;99.90;;;;;;4435735;32;20085;-69
2022/06/06 03:40:29;;;;;;;0.60;0.60;;;19.00;99.90;;;;;;4437279;32;20084;-69
2022/06/06 03:43:23;;;;;;;1.08;0.98;;;19.00;99.90;;;;;;4432853;32;20101;-69
2022/06/06 03:46:03;;;;;;;0.52;0.52;;;18.90;99.90;;;;;;4432485;32;20406;-68
2022/06/06 03:48:53;;;;;;;0.57;0.57;;;19.00;99.90;;;;;;4424545;32;20610;-68
2022/06/06 03:52:00;;;;;;;1.23;0.90;;;18.90;99.90;;;;;;4426917;32;20164;-69
2022/06/06 03:54:46;;;;;;;0.80;0.70;;;18.80;99.90;;;;;;4425765;32;20637;-68
2022/06/06 03:57:16;;;;;;;0.73;0.55;;;18.80;99.90;;;;;;4429665;32;20068;-69
2022/06/06 03:59:45;;;;;;;0.85;0.70;;;18.80;99.90;;;;;;4440541;32;20081;-68
2022/06/06 04:02:17;;;;;;;7.32;1.55;;;18.70;99.90;;;;;;4440999;32;20085;-68
2022/06/06 04:04:43;;;;;;;0.88;0.85;;;18.80;99.90;;;;;;4443825;32;20096;-70
2022/06/06 04:07:09;;;;;;;0.57;0.52;;;18.80;99.90;;;;;;4442024;32;20418;-70
2022/06/06 04:09:35;;;;;;;0.65;0.65;;;18.80;99.90;;;;;;4440511;32;20070;-70
2022/06/06 04:12:22;;;;;;;1.73;0.80;;;18.70;99.90;;;;;;4438095;32;20084;-70
2022/06/06 04:15:24;;;;;;;0.85;0.70;;;18.80;99.90;;;;;;4437028;32;20097;-70
2022/06/06 04:18:00;;;;;;;0.52;0.52;;;18.80;99.90;;;;;;4439516;32;20090;-70
2022/06/06 04:20:55;;;;;;;0.77;0.77;;;18.70;99.90;;;;;;4436910;32;20546;-70
2022/06/06 04:23:37;;;;;;;0.62;0.60;;;18.80;99.90;;;;;;4437481;32;20064;-70
2022/06/06 04:26:27;;;;;;;0.60;0.60;;;18.70;99.90;;;;;;4440756;32;20544;-70
2022/06/06 04:29:14;;;;;;;0.40;0.40;;;18.70;99.90;;;;;;4440210;32;20129;-70
2022/06/06 04:32:02;;;;;;;0.82;0.62;;;18.70;99.90;;;;;;4437330;32;20097;-70
2022/06/06 04:34:44;;;;;;;1.08;0.68;;;18.60;99.90;;;;;;4438531;32;20077;-70
2022/06/06 04:37:19;;;;;;;0.82;0.82;;;18.60;99.90;;;;;;4437282;32;20085;-70
2022/06/06 04:39:50;;;;;;;0.50;0.50;;;18.60;99.90;;;;;;4438233;32;20093;-70
2022/06/06 04:42:42;;;;;;;1.60;1.00;;;18.50;99.90;;;;;;4436937;32;20521;-70
2022/06/06 04:45:31;;;;;;;0.43;0.43;;;18.60;99.90;;;;;;4437949;32;20155;-70
2022/06/06 04:47:58;;;;;;;0.82;0.82;;;18.70;99.90;;;;;;4434705;32;20139;-70
2022/06/06 04:50:24;;;;;;;0.88;0.70;;;18.80;99.90;;;;;;4439187;32;20289;-70
2022/06/06 04:53:03;;;;;;;0.45;0.43;;;18.70;99.90;;;;;;4436956;32;20463;-69
2022/06/06 04:55:32;;;;;;;0.57;0.57;;;18.80;99.90;;;;;;4434648;32;20654;-69
2022/06/06 04:58:00;;;;;;;0.50;0.50;;;18.90;99.90;;;;;;4436013;32;20102;-69
2022/06/06 05:00:26;;;;;;;1.67;0.90;;;18.80;99.90;;;;;;4424067;32;20163;-70
2022/06/06 05:02:52;;;;;;;0.57;0.57;;;18.80;99.90;;;;;;4419802;32;20700;-69
2022/06/06 05:05:17;;;;;;;0.70;0.70;;;18.80;99.90;;;;;;4420170;32;20081;-69
2022/06/06 05:07:47;;;;;;;0.95;0.77;;;18.70;99.90;;;;;;4432201;32;20253;-69
2022/06/06 05:10:20;;;;;;;0.60;0.60;;;18.70;99.90;;;;;;4428910;32;20077;-70
2022/06/06 05:13:25;;;;;;;0.77;0.57;;;18.80;99.90;;;;;;4423160;32;20065;-70
2022/06/06 05:16:05;;;;;;;1.33;0.60;;;18.80;99.90;;;;;;4427026;32;20085;-70
2022/06/06 05:18:44;;;;;;;0.70;0.70;;;18.80;99.90;;;;;;4430577;32;20541;-70
2022/06/06 05:21:31;;;;;;;2.30;0.60;;;18.80;99.90;;;;;;4429382;32;20235;-69
2022/06/06 05:24:12;;;;;;;0.43;0.43;;;18.80;99.90;;;;;;4419204;32;20069;-70
2022/06/06 05:27:11;;;;;;;0.35;0.35;;;18.90;99.90;;;;;;4424712;32;20464;-70
2022/06/06 05:29:50;;;;;;;1.83;0.82;;;19.00;99.90;;;;;;4422828;32;20682;-69
2022/06/06 05:32:34;;;;;;;1.77;0.98;;;18.90;99.90;;;;;;4420051;32;20485;-69
2022/06/06 05:35:21;;;;;;;2.17;0.93;;;19.00;99.90;;;;;;4422994;32;20096;-69
2022/06/06 05:38:06;;;;;;;0.40;0.40;;;19.20;99.90;;;;;;4423924;32;20088;-69
2022/06/06 05:40:37;;;;;;;0.90;0.80;;;19.40;99.90;;;;;;4427392;32;20076;-69
2022/06/06 05:43:17;;;;;;;4.07;0.77;;;19.40;99.90;;;;;;4426273;32;20403;-69
2022/06/06 05:45:52;;;;;;;1.20;0.85;;;19.40;99.90;;;;;;4429346;32;20134;-69
2022/06/06 05:48:58;;;;;;;1.87;0.90;;;19.50;99.90;;;;;;4427017;32;22326;-70
2022/06/06 05:51:42;;;;;;;5.18;0.80;;;19.60;99.90;;;;;;4418109;32;20484;-69
2022/06/06 05:54:18;;;;;;;0.70;0.70;;;19.60;99.90;;;;;;4427833;32;20090;-69
2022/06/06 05:57:09;;;;;;;10.18;0.73;;;19.70;99.90;;;;;;4426722;32;20113;-69
2022/06/06 06:00:01;;;;;;;16.87;1.05;;;19.70;99.90;;;;;;4426537;32;20065;-69
2022/06/06 06:02:53;;;;;;;0.37;0.37;;;19.70;99.90;;;;;;4418060;32;20483;-69
2022/06/06 06:05:36;;;;;;;0.75;0.60;;;19.70;99.90;;;;;;4425465;32;20701;-69
2022/06/06 06:08:42;;;;;;;0.60;0.60;;;19.60;99.90;;;;;;4426328;32;20092;-69
2022/06/06 06:11:47;;;;;;;0.50;0.50;;;19.60;99.90;;;;;;4415603;32;20450;-69
2022/06/06 06:14:33;;;;;;;2.03;0.57;;;19.60;99.90;;;;;;4412735;32;20086;-69
2022/06/06 06:17:02;;;;;;;0.88;0.55;;;19.60;99.90;;;;;;4425320;32;20121;-69
2022/06/06 06:19:36;;;;;;;2.65;1.23;;;19.50;99.90;;;;;;4430829;32;20084;-69
2022/06/06 06:22:03;;;;;;;1.75;0.50;;;19.50;99.90;;;;;;4428494;32;20434;-69
2022/06/06 06:24:34;;;;;;;0.65;0.60;;;19.70;99.90;;;;;;4427777;32;20093;-69
2022/06/06 06:27:02;;;;;;;0.35;0.35;;;19.70;99.90;;;;;;4424369;32;20130;-69
2022/06/06 06:29:27;;;;;;;0.35;0.35;;;19.70;99.90;;;;;;4427955;32;20128;-69
2022/06/06 06:32:09;;;;;;;0.28;0.28;;;19.70;99.90;;;;;;4418013;32;20089;-69
2022/06/06 06:35:15;;;;;;;0.60;0.47;;;19.80;99.90;;;;;;4420966;32;20105;-69
2022/06/06 06:38:02;;;;;;;0.37;0.37;;;19.70;99.90;;;;;;4425788;32;20081;-70
2022/06/06 06:40:59;;;;;;;0.70;0.45;;;19.70;99.90;;;;;;4438849;32;20618;-70
2022/06/06 06:43:46;;;;;;;0.75;0.60;;;19.60;99.90;;;;;;4426846;32;20092;-69
2022/06/06 06:46:48;;;;;;;0.52;0.43;;;19.60;99.90;;;;;;4423523;32;20147;-69
2022/06/06 06:49:39;;;;;;;0.32;0.32;;;19.70;99.90;;;;;;4428680;32;20084;-70
2022/06/06 06:52:14;;;;;;;0.35;0.35;;;19.80;99.90;;;;;;4429309;32;20080;-70
2022/06/06 06:54:55;;;;;;;0.68;0.68;;;19.80;99.90;;;;;;4435722;32;20097;-70
2022/06/06 06:57:44;;;;;;;0.37;0.37;;;19.90;99.90;;;;;;4432974;32;20085;-70
2022/06/06 07:00:15;;;;;;;0.40;0.40;;;20.00;99.90;;;;;;4438154;32;20572;-70
2022/06/06 07:09:25;;;;;;;0.30;0.30;;;20.10;99.90;;;;;;4426334;32;20426;-69
2022/06/06 07:12:04;;;;;;;0.73;0.60;;;20.20;99.90;;;;;;4423612;32;20081;-69
2022/06/06 07:14:51;;;;;;;0.98;0.60;;;20.30;99.90;;;;;;4419349;32;20147;-69
2022/06/06 07:17:20;;;;;;;0.77;0.77;;;20.40;99.90;;;;;;4422797;32;20104;-69
2022/06/06 07:19:53;;;;;;;1.23;0.75;;;20.40;99.90;;;;;;4423603;32;20162;-69
2022/06/06 07:22:20;;;;;;;0.35;0.32;;;20.50;99.90;;;;;;4430662;32;20073;-69
2022/06/06 07:24:55;;;;;;;0.95;0.50;;;20.60;99.90;;;;;;4429301;32;20076;-69
2022/06/06 07:27:20;;;;;;;1.55;1.05;;;20.80;99.90;;;;;;4422888;32;20168;-69
2022/06/06 07:29:46;;;;;;;0.45;0.45;;;20.90;99.90;;;;;;4425852;32;20065;-69
2022/06/06 07:32:26;;;;;;;0.50;0.50;;;21.00;99.90;;;;;;4416131;32;20089;-69
2022/06/06 07:35:18;;;;;;;0.52;0.52;;;20.90;99.90;;;;;;4420111;32;21137;-68
2022/06/06 07:38:16;;;;;;;0.35;0.35;;;21.10;99.90;;;;;;4425153;32;20416;-69
2022/06/06 07:41:22;;;;;;;0.45;0.45;;;21.20;99.90;;;;;;4438275;32;20060;-69
2022/06/06 07:44:12;;;;;;;0.40;0.40;;;21.20;99.90;;;;;;4419223;32;20077;-69
2022/06/06 07:46:45;;;;;;;0.30;0.30;;;21.30;99.90;;;;;;4428846;32;20573;-69
2022/06/06 07:49:21;;;;;;;1.17;0.65;;;21.40;99.90;;;;;;4428447;32;20539;-69
2022/06/06 07:52:14;;;;;;;3.00;0.85;;;21.60;99.90;;;;;;4431937;32;20061;-69
2022/06/06 07:54:49;;;;;;;0.43;0.43;;;21.80;99.90;;;;;;4428253;32;20073;-69
2022/06/06 07:57:29;;;;;;;0.25;0.25;;;21.80;99.90;;;;;;4428035;32;20085;-69
2022/06/06 08:00:07;;;;;;;2.62;1.00;;;21.90;99.90;;;;;;4428975;32;20489;-69
2022/06/06 08:02:48;;;;;;;0.30;0.30;;;22.10;99.90;;;;;;4417200;32;20082;-69
2022/06/06 08:05:49;;;;;;;0.45;0.45;;;22.10;99.90;;;;;;4424177;32;20073;-69
2022/06/06 08:08:43;;;;;;;0.37;0.37;;;22.20;99.90;;;;;;4435766;32;20072;-69
2022/06/06 08:11:26;;;;;;;0.70;0.50;;;22.10;99.90;;;;;;4434522;32;20497;-69
2022/06/06 08:14:14;;;;;;;0.55;0.40;;;22.40;99.90;;;;;;4428741;32;20085;-69
2022/06/06 08:16:46;;;;;;;0.43;0.43;;;22.40;99.90;;;;;;4427913;32;20408;-69
2022/06/06 08:19:37;;;;;;;0.40;0.37;;;22.40;99.90;;;;;;4428384;32;20188;-69
2022/06/06 08:22:03;;;;;;;0.52;0.45;;;22.30;99.90;;;;;;4426307;32;20096;-69
2022/06/06 08:24:36;;;;;;;0.28;0.28;;;22.20;99.90;;;;;;4427514;32;20402;-69
2022/06/06 08:27:05;;;;;;;0.20;0.20;;;22.30;99.90;;;;;;4429923;32;20132;-69
2022/06/06 08:29:34;;;;;;;1.02;0.37;;;22.60;99.90;;;;;;4429270;32;20832;-69
2022/06/06 08:32:00;;;;;;;0.30;0.30;;;23.00;99.90;;;;;;4426283;32;20089;-69
2022/06/06 09:19:25;;;;;;;0.20;0.20;;;23.10;99.90;;;;;;4315291;33;20139;-84
2022/06/06 09:22:04;;;;;;;0.30;0.30;;;22.90;99.90;;;;;;4333262;33;20103;-86
2022/06/06 09:24:55;;;;;;;0.30;0.30;;;23.30;99.90;;;;;;4331307;33;20079;-86
2022/06/06 09:27:53;;;;;;;19.02;0.73;;;23.80;99.90;;;;;;4338908;33;20152;-85
2022/06/06 09:30:35;;;;;;;0.25;0.25;;;23.90;99.90;;;;;;4340347;33;20091;-88
2022/06/06 09:33:37;;;;;;;0.20;0.20;;;23.90;99.90;;;;;;4334921;33;20084;-87
2022/06/06 09:36:30;;;;;;;0.50;0.50;;;23.80;99.90;;;;;;4334622;33;20096;-85
2022/06/06 09:39:35;;;;;;;2.67;0.40;;;23.70;99.90;;;;;;4334156;33;20072;-86
2022/06/06 09:42:17;;;;;;;0.43;0.35;;;23.80;99.90;;;;;;4324459;33;20145;-85
2022/06/06 09:45:23;;;;;;;0.98;0.35;;;23.70;99.90;;;;;;4334413;33;20091;-86
2022/06/06 09:48:17;;;;;;;0.20;0.20;;;23.70;99.90;;;;;;4324534;33;20115;-86
2022/06/06 09:51:07;;;;;;;0.40;0.40;;;23.70;99.90;;;;;;4334651;33;20076;-87
2022/06/06 09:59:01;;;;;;;1.75;0.50;;;24.00;99.90;;;;;;4323380;33;20107;-86
2022/06/06 10:00:22;;;;;;;0.25;0.25;;;24.00;99.90;;;;;;4325873;33;20064;-85
2022/06/06 10:03:21;;;;;;;0.30;0.30;;;24.00;99.90;;;;;;4331637;33;20068;-87
2022/06/06 10:06:20;;;;;;;0.17;0.17;;;23.90;99.90;;;;;;4326386;33;20104;-84
2022/06/06 10:09:18;;;;;;;0.20;0.20;;;23.90;99.90;;;;;;4333377;33;20071;-85
2022/06/06 10:12:12;;;;;;;0.30;0.30;;;23.80;99.90;;;;;;4334962;33;20092;-87
2022/06/06 10:15:05;;;;;;;0.20;0.20;;;23.70;99.90;;;;;;4330014;33;20483;-85
2022/06/06 10:17:53;;;;;;;0.75;0.40;;;23.60;99.90;;;;;;4327309;33;20079;-86
2022/06/06 10:20:41;;;;;;;0.20;0.20;;;23.50;99.90;;;;;;4324998;33;20139;-85
2022/06/06 10:23:36;;;;;;;0.10;0.10;;;23.50;99.90;;;;;;4330994;33;20547;-86
2022/06/06 10:26:23;;;;;;;0.20;0.20;;;23.50;99.90;;;;;;4324705;33;20080;-89
2022/06/06 10:29:10;;;;;;;0.20;0.20;;;23.50;99.90;;;;;;4322783;33;20144;-87
2022/06/06 10:32:15;;;;;;;0.20;0.20;;;23.70;99.90;;;;;;4324166;33;20084;-87
2022/06/06 10:35:09;;;;;;;0.20;0.20;;;23.80;99.90;;;;;;4313698;33;20524;-87
2022/06/06 10:37:59;;;;;;;0.20;0.20;;;24.00;99.90;;;;;;4321881;33;20088;-87
2022/06/06 10:40:42;;;;;;;0.32;0.30;;;24.90;99.90;;;;;;4323276;33;20492;-87
2022/06/06 10:43:40;;;;;;;0.65;0.30;;;25.60;99.90;;;;;;4320778;33;20067;-88
2022/06/06 10:46:16;;;;;;;0.43;0.20;;;25.40;99.90;;;;;;4330373;33;20107;-87
2022/06/06 10:49:21;;;;;;;0.22;0.22;;;24.90;99.90;;;;;;4321508;33;20068;-86
2022/06/06 10:52:12;;;;;;;0.10;0.10;;;24.40;99.90;;;;;;4311667;33;20083;-86
2022/06/06 10:55:06;;;;;;;0.20;0.20;;;24.30;99.90;;;;;;4321748;33;20048;-87
2022/06/06 10:58:08;;;;;;;0.22;0.20;;;24.30;99.90;;;;;;4322695;33;20099;-87
2022/06/06 11:01:07;;;;;;;0.20;0.20;;;24.30;99.90;;;;;;4322638;33;20598;-88
2022/06/06 11:04:10;;;;;;;0.30;0.30;;;24.50;99.90;;;;;;4312743;33;20185;-87
2022/06/06 11:07:00;;;;;;;0.30;0.30;;;24.40;99.90;;;;;;4313579;33;20104;-87
2022/06/06 11:09:50;;;;;;;0.60;0.37;;;24.80;99.40;;;;;;4321752;33;20087;-86
2022/06/06 11:12:42;;;;;;;0.43;0.43;;;25.50;99.40;;;;;;4314459;33;20724;-87
2022/06/06 11:15:07;;;;;;;0.10;0.10;;;26.10;99.20;;;;;;4325614;33;20124;-86
2022/06/06 11:18:01;;;;;;;0.77;0.68;;;26.40;97.80;;;;;;4324702;33;20076;-87
2022/06/06 11:20:47;;;;;;;0.10;0.10;;;26.70;97.10;;;;;;4324218;33;20087;-87
2022/06/06 11:23:22;;;;;;;0.30;0.30;;;26.40;96.90;;;;;;4326164;33;20067;-86
2022/06/06 11:26:09;;;;;;;0.60;0.30;;;25.90;97.30;;;;;;4324260;33;20108;-87
2022/06/06 11:28:47;;;;;;;0.22;0.22;;;25.60;98.40;;;;;;4324499;33;20099;-86
2022/06/06 11:31:26;;;;;;;0.35;0.35;;;25.40;98.10;;;;;;4312688;33;20144;-86
2022/06/06 11:34:15;;;;;;;0.28;0.25;;;25.20;98.20;;;;;;4325412;33;20092;-86
2022/06/06 11:37:15;;;;;;;0.20;0.20;;;25.00;98.50;;;;;;4325339;33;20083;-86
2022/06/06 11:40:06;;;;;;;0.22;0.22;;;25.00;98.70;;;;;;4327069;33;20075;-86
2022/06/06 11:43:16;;;;;;;0.20;0.20;;;25.40;98.30;;;;;;4326492;33;20219;-87
2022/06/06 11:46:19;;;;;;;0.20;0.20;;;26.10;97.70;;;;;;4323572;33;20228;-87
2022/06/06 11:49:27;;;;;;;0.57;0.22;;;27.10;96.00;;;;;;4325007;33;20088;-88
2022/06/06 11:52:19;;;;;;;0.10;0.10;;;27.60;94.10;;;;;;4315714;33;20076;-88
2022/06/06 11:55:25;;;;;;;0.15;0.10;;;27.60;93.90;;;;;;4325441;33;20068;-88
2022/06/06 11:58:13;;;;;;;1.17;0.22;;;27.40;94.60;;;;;;4323270;33;20751;-87
2022/06/06 12:01:09;;;;;;;0.20;0.20;;;26.80;94.50;;;;;;4314827;33;20533;-88
2022/06/06 12:03:59;;;;;;;0.52;0.22;;;26.50;95.90;;;;;;4330556;33;20091;-86
2022/06/06 12:06:54;;;;;;;0.20;0.20;;;26.40;95.50;;;;;;4314454;33;20215;-87
2022/06/06 12:09:30;;;;;;;0.22;0.20;;;26.20;95.50;;;;;;4323850;33;20089;-87
2022/06/06 12:12:30;;;;;;;0.10;0.10;;;26.20;97.00;;;;;;4323652;33;20103;-87
2022/06/06 12:15:18;;;;;;;0.20;0.20;;;26.10;97.10;;;;;;4317476;33;20095;-85
2022/06/06 12:18:08;;;;;;;0.32;0.32;;;25.80;95.60;;;;;;4312507;33;20103;-86
2022/06/06 12:20:58;;;;;;;0.13;0.13;;;25.40;97.20;;;;;;4323855;33;20083;-86
2022/06/06 12:24:00;;;;;;;0.30;0.30;;;25.30;97.80;;;;;;4312449;33;20673;-87
2022/06/06 12:26:50;;;;;;;0.10;0.10;;;25.20;97.30;;;;;;4315218;33;20591;-87
2022/06/06 12:29:55;;;;;;;0.30;0.30;;;25.30;96.70;;;;;;4319664;33;20172;-86
2022/06/06 12:32:59;;;;;;;0.20;0.20;;;25.50;97.00;;;;;;4324965;33;20108;-87
2022/06/06 12:35:38;;;;;;;0.43;0.40;;;26.40;97.20;;;;;;4323399;33;20080;-87
2022/06/06 12:38:27;;;;;;;0.35;0.25;;;26.60;95.70;;;;;;4323646;33;20080;-86
2022/06/06 12:41:24;;;;;;;0.10;0.10;;;27.00;96.60;;;;;;4323676;33;20052;-88
2022/06/06 12:44:00;;;;;;;0.25;0.25;;;27.70;95.10;;;;;;4330357;33;20080;-86
2022/06/06 12:46:36;;;;;;;0.13;0.13;;;28.30;93.50;;;;;;4322380;33;20080;-89
2022/06/06 12:49:25;;;;;;;0.40;0.32;;;28.70;93.20;;;;;;4310671;33;20133;-87
2022/06/06 12:52:32;;;;;;;0.43;0.30;;;28.90;92.70;;;;;;4312245;33;20127;-89
2022/06/06 12:58:01;;;;;;;0.05;0.05;;;28.40;91.30;;;;;;4322906;33;20150;-87
2022/06/06 13:01:39;;;;;;;5.07;0.90;;;28.00;92.10;;;;;;4324228;33;20096;-88
2022/06/06 13:03:32;;;;;;;0.85;0.35;;;27.50;92.40;;;;;;4320882;33;20169;-88
2022/06/06 13:06:20;;;;;;;0.10;0.10;;;27.10;93.90;;;;;;4319414;33;20786;-88
2022/06/06 13:09:01;;;;;;;0.20;0.20;;;26.90;94.70;;;;;;4315432;33;20080;-88
2022/06/06 13:11:50;;;;;;;0.20;0.20;;;27.40;92.70;;;;;;4324698;33;20144;-88
2022/06/06 13:14:36;;;;;;;0.35;0.25;;;27.30;92.60;;;;;;4325054;33;20080;-87
2022/06/06 13:17:31;;;;;;;0.30;0.30;;;28.00;92.40;;;;;;4325396;33;20068;-89
2022/06/06 13:20:07;;;;;;;0.32;0.28;;;30.00;90.90;;;;;;4323006;33;20075;-88
2022/06/06 13:22:52;;;;;;;0.30;0.30;;;30.90;87.90;;;;;;4324465;33;20326;-90
2022/06/06 13:25:54;;;;;;;1.08;0.62;;;31.60;84.90;;;;;;4326764;33;20072;-88
2022/06/06 13:28:33;;;;;;;0.20;0.20;;;31.90;81.20;;;;;;4313287;33;20063;-88
2022/06/06 13:31:25;;;;;;;0.10;0.10;;;31.10;81.80;;;;;;4321653;33;20112;-89
2022/06/06 13:34:14;;;;;;;0.50;0.37;;;29.40;84.80;;;;;;4313493;33;20418;-88
2022/06/06 13:37:09;;;;;;;0.20;0.20;;;28.20;89.10;;;;;;4325453;33;20108;-88
2022/06/06 13:40:12;;;;;;;1.77;0.90;;;27.50;90.30;;;;;;4324201;33;20143;-87
2022/06/06 13:42:56;;;;;;;0.10;0.10;;;27.40;90.90;;;;;;4322367;33;20104;-88
2022/06/06 13:45:58;;;;;;;0.10;0.10;;;27.40;91.50;;;;;;4322895;33;20072;-88
2022/06/06 13:48:39;;;;;;;3.75;0.62;;;27.40;91.50;;;;;;4323044;33;20096;-88
2022/06/06 13:51:41;;;;;;;0.20;0.20;;;27.10;91.80;;;;;;4322262;33;20128;-88
2022/06/06 13:54:25;;;;;;;0.55;0.20;;;26.90;92.00;;;;;;4327950;33;20090;-87
2022/06/06 13:57:09;;;;;;;0.10;0.10;;;27.40;90.30;;;;;;4326825;33;20067;-88
2022/06/06 14:00:11;;;;;;;0.20;0.17;;;28.90;90.20;;;;;;4333809;33;20119;-88
2022/06/06 14:03:08;;;;;;;0.55;0.32;;;28.70;83.80;;;;;;4322397;33;20083;-87
2022/06/06 14:05:53;;;;;;;0.10;0.10;;;28.70;84.30;;;;;;4321013;33;20113;-86
2022/06/06 14:08:21;;;;;;;0.22;0.22;;;29.20;83.70;;;;;;4306135;33;20069;-87
2022/06/06 14:10:57;;;;;;;0.10;0.10;;;28.80;86.10;;;;;;4324297;33;20119;-88
2022/06/06 14:13:44;;;;;;;0.00;0.00;;;28.40;85.30;;;;;;4312256;33;20084;-88
2022/06/06 14:16:26;;;;;;;0.17;0.17;;;28.40;85.00;;;;;;4325040;33;20476;-86
2022/06/06 14:18:58;;;;;;;0.03;0.03;;;29.60;78.50;;;;;;4327386;33;20084;-87
2022/06/06 14:21:30;;;;;;;0.17;0.17;;;29.80;79.80;;;;;;4328568;33;20136;-88
2022/06/06 14:24:17;;;;;;;0.22;0.15;;;29.80;78.10;;;;;;4326224;33;20079;-86
2022/06/06 14:27:02;;;;;;;0.10;0.10;;;29.20;77.50;;;;;;4326552;33;20092;-86
2022/06/06 14:29:37;;;;;;;0.57;0.35;;;28.40;78.20;;;;;;4323263;33;20166;-86
2022/06/06 14:32:17;;;;;;;0.10;0.10;;;27.90;81.10;;;;;;4325821;33;20084;-87
2022/06/06 14:34:46;;;;;;;1.37;0.43;;;27.60;82.60;;;;;;4325587;33;20087;-87
2022/06/06 14:37:35;;;;;;;0.20;0.20;;;27.20;85.20;;;;;;4325431;33;20109;-86
2022/06/06 14:40:15;;;;;;;0.10;0.10;;;27.00;83.10;;;;;;4325306;33;20076;-86
2022/06/06 14:42:52;;;;;;;0.20;0.20;;;27.60;82.90;;;;;;4322667;33;20104;-86
2022/06/06 14:45:30;;;;;;;0.55;0.35;;;28.00;81.50;;;;;;4325269;33;20622;-87
2022/06/06 14:48:06;;;;;;;0.20;0.17;;;28.10;81.40;;;;;;4325078;33;20444;-88
2022/06/06 14:50:50;;;;;;;0.08;0.08;;;28.80;83.50;;;;;;4322619;33;20087;-88
2022/06/06 14:53:42;;;;;;;0.50;0.17;;;28.40;85.00;;;;;;4321404;33;20092;-87
2022/06/06 14:56:24;;;;;;;0.10;0.10;;;27.60;87.90;;;;;;4322806;33;20087;-88
2022/06/06 14:58:58;;;;;;;0.30;0.28;;;27.00;90.10;;;;;;4317865;33;20076;-87
2022/06/06 15:01:25;;;;;;;0.10;0.10;;;26.50;90.90;;;;;;4321022;33;20499;-86
2022/06/06 15:03:56;;;;;;;0.30;0.30;;;26.10;91.70;;;;;;4321427;33;20056;-87
2022/06/06 15:06:44;;;;;;;0.43;0.30;;;25.80;92.60;;;;;;4326214;33;20429;-87